Time;durP1;ratioP1;P1;durP2;ratioP2;P2;SDS_P1;SDS_P2;PMS_P1;PMS_P2;Temp;Humidity;BMP_temperature;BMP_pressure;BME280_temperature;BME280_humidity;BME280_pressure;Samples;Min_cycle;Max_cycle;Signal;HPM_P1;HPM_P2
2021/03/15 00:00:49;;;;;;;20.60;13.87;;;;;;;5.51;83.39;94475.69;1821779;78;21582;-64
2021/03/15 00:03:19;;;;;;;26.97;14.87;;;;;;;5.47;83.09;94476.62;1821302;79;21149;-65
2021/03/15 00:05:48;;;;;;;41.17;20.17;;;;;;;5.43;83.74;94475.37;1752864;82;21160;-64
2021/03/15 00:08:16;;;;;;;19.47;12.10;;;;;;;5.47;83.50;94473.58;1767153;81;21144;-65
2021/03/15 00:10:44;;;;;;;11.53;7.13;;;;;;;5.48;83.38;94473.13;1822071;79;21124;-64
2021/03/15 00:13:14;;;;;;;15.13;10.80;;;;;;;5.42;83.63;94468.42;1821976;78;21117;-65
2021/03/15 00:15:43;;;;;;;36.23;18.70;;;;;;;5.42;83.60;94467.12;1821854;79;21180;-65
2021/03/15 00:18:11;;;;;;;54.17;20.03;;;;;;;5.43;83.80;94467.97;1725510;82;21137;-65
2021/03/15 00:20:40;;;;;;;30.20;15.93;;;;;;;5.45;83.23;94469.27;1766956;81;21156;-65
2021/03/15 00:23:07;;;;;;;11.33;7.53;;;;;;;5.45;83.21;94460.97;1767072;81;21164;-65
2021/03/15 00:25:36;;;;;;;14.13;9.20;;;;;;;5.42;83.29;94458.41;1755107;82;21157;-65
2021/03/15 00:28:05;;;;;;;14.03;9.23;;;;;;;5.40;83.29;94460.19;1753494;82;21185;-65
2021/03/15 00:30:33;;;;;;;158.27;47.03;;;;;;;5.41;84.10;94459.28;1755236;81;21152;-65
2021/03/15 00:33:01;;;;;;;57.57;21.77;;;;;;;5.33;84.59;94456.80;1767119;81;21578;-65
2021/03/15 00:35:29;;;;;;;56.30;18.33;;;;;;;5.31;84.32;94447.25;1767154;81;21144;-65
2021/03/15 00:37:57;;;;;;;63.00;25.00;;;;;;;5.29;84.62;94444.68;1767036;81;21125;-65
2021/03/15 00:40:26;;;;;;;63.13;24.07;;;;;;;5.30;84.25;94443.78;1821790;79;21105;-65
2021/03/15 00:42:55;;;;;;;25.43;14.40;;;;;;;5.30;83.96;94433.31;1792707;79;21124;-64
2021/03/15 00:45:25;;;;;;;22.50;11.03;;;;;;;5.33;83.56;94438.48;1754888;82;21153;-64
2021/03/15 00:47:54;;;;;;;11.13;7.40;;;;;;;5.39;83.25;94428.36;1737031;81;21153;-65
2021/03/15 00:50:40;;;;;;;10.10;6.53;;;;;;;5.39;83.01;94438.41;1725604;82;21164;-67
2021/03/15 00:53:05;;;;;;;10.50;6.08;;;;;;;5.40;82.59;94434.88;1766909;81;21595;-65
2021/03/15 00:55:33;;;;;;;9.33;5.77;;;;;;;5.45;82.47;94436.56;1754883;82;21133;-65
2021/03/15 00:58:02;;;;;;;10.47;5.87;;;;;;;5.47;83.04;94432.14;1767349;81;21172;-64
2021/03/15 01:00:37;;;;;;;10.13;6.90;;;;;;;5.47;82.25;94434.77;1767179;81;21164;-65
2021/03/15 01:03:08;;;;;;;22.63;11.40;;;;;;;5.50;82.85;94429.05;1755217;82;21134;-64
2021/03/15 01:05:44;;;;;;;39.07;21.03;;;;;;;5.47;83.79;94429.53;1767087;81;21571;-65
2021/03/15 01:08:16;;;;;;;43.43;22.07;;;;;;;5.38;84.53;94427.50;1818007;79;21125;-64
2021/03/15 01:10:46;;;;;;;44.43;21.30;;;;;;;5.35;84.92;94424.09;1754927;82;21579;-65
2021/03/15 01:13:16;;;;;;;25.63;14.37;;;;;;;5.34;84.66;94424.54;1767514;81;21278;-65
2021/03/15 01:15:45;;;;;;;31.53;17.60;;;;;;;5.35;85.01;94421.47;1821929;79;21134;-65
2021/03/15 01:18:13;;;;;;;34.70;18.93;;;;;;;5.34;84.76;94422.34;1822014;79;21539;-65
2021/03/15 01:20:42;;;;;;;31.53;18.27;;;;;;;5.40;85.31;94420.95;1754866;82;21578;-65
2021/03/15 01:23:11;;;;;;;30.87;16.67;;;;;;;5.49;85.08;94422.52;1753223;81;21220;-65
2021/03/15 01:25:41;;;;;;;29.40;17.47;;;;;;;5.46;84.90;94418.66;1755080;81;21579;-65
2021/03/15 01:28:13;;;;;;;23.60;14.40;;;;;;;5.47;84.53;94417.75;1767140;81;21180;-65
2021/03/15 01:30:44;;;;;;;21.07;12.17;;;;;;;5.51;84.70;94408.52;1767279;81;21140;-65
2021/03/15 01:33:13;;;;;;;21.73;12.20;;;;;;;5.69;84.48;94411.24;1755117;82;21146;-64
2021/03/15 01:35:41;;;;;;;24.87;13.60;;;;;;;5.89;84.14;94406.08;1767128;81;21167;-65
2021/03/15 01:38:10;;;;;;;25.13;13.47;;;;;;;6.00;83.43;94397.62;1767167;81;21140;-65
2021/03/15 01:40:40;;;;;;;25.23;13.57;;;;;;;6.12;83.06;94385.55;1767306;81;21594;-64
2021/03/15 01:43:08;;;;;;;22.27;13.50;;;;;;;6.20;82.54;94380.16;1767044;81;21148;-64
2021/03/15 01:45:36;;;;;;;19.10;11.43;;;;;;;6.25;82.09;94376.56;1767551;81;21678;-65
2021/03/15 01:48:13;;;;;;;15.23;9.63;;;;;;;6.19;81.79;94377.13;1754909;81;21273;-65
2021/03/15 01:50:45;;;;;;;18.90;11.40;;;;;;;5.94;81.44;94376.78;1766901;81;21160;-65
2021/03/15 01:53:14;;;;;;;23.60;13.53;;;;;;;5.76;81.43;94377.98;1766611;81;21148;-65
2021/03/15 01:55:43;;;;;;;22.33;13.67;;;;;;;5.61;83.08;94372.14;1766981;81;21148;-65
2021/03/15 01:58:13;;;;;;;23.30;13.57;;;;;;;5.61;82.68;94374.75;1766948;81;21594;-65
2021/03/15 02:00:43;;;;;;;21.20;11.37;;;;;;;5.69;82.62;94366.75;1822109;79;21134;-65
2021/03/15 02:03:12;;;;;;;21.47;13.30;;;;;;;5.61;82.87;94362.98;1754944;82;21129;-65
2021/03/15 02:05:42;;;;;;;19.43;11.63;;;;;;;5.55;83.46;94361.80;1766798;81;21185;-65
2021/03/15 02:08:11;;;;;;;23.63;12.83;;;;;;;5.49;83.46;94353.20;1821762;79;21149;-65
2021/03/15 02:10:38;;;;;;;21.10;13.03;;;;;;;5.38;83.83;94353.41;1754861;82;22381;-65
2021/03/15 02:13:33;;;;;;;23.20;13.47;;;;;;;5.37;84.66;94353.86;1767368;81;21144;-65
2021/03/15 02:16:16;;;;;;;15.13;9.73;;;;;;;5.38;84.50;94352.09;1767268;81;21121;-65
2021/03/15 02:18:58;;;;;;;16.87;10.07;;;;;;;5.35;85.13;94356.94;1755074;82;21536;-65
2021/03/15 02:22:09;;;;;;;17.90;9.97;;;;;;;5.35;85.43;94356.08;1766884;81;21129;-65
2021/03/15 02:24:59;;;;;;;17.73;11.27;;;;;;;5.27;85.05;94356.67;1754261;82;21623;-65
2021/03/15 02:28:06;;;;;;;23.93;14.37;;;;;;;5.25;85.33;94354.53;1753498;81;21555;-65
2021/03/15 02:31:17;;;;;;;27.43;15.90;;;;;;;5.24;85.54;94361.52;1778383;81;21144;-64
2021/03/15 02:34:30;;;;;;;25.23;14.37;;;;;;;5.28;84.90;94351.40;1778538;81;21590;-65
2021/03/15 02:37:02;;;;;;;21.97;11.73;;;;;;;5.36;85.07;94355.18;1778683;81;21152;-65
2021/03/15 02:39:34;;;;;;;19.23;11.53;;;;;;;5.35;85.05;94348.23;1757935;82;21106;-65
2021/03/15 02:42:06;;;;;;;19.70;12.57;;;;;;;5.30;84.99;94353.55;1778425;81;21144;-65
2021/03/15 02:44:35;;;;;;;19.77;11.73;;;;;;;5.27;85.67;94356.67;1757803;82;21172;-65
2021/03/15 02:47:08;;;;;;;16.20;10.03;;;;;;;5.37;85.63;94348.62;1778435;81;21601;-65
2021/03/15 02:49:38;;;;;;;15.85;10.50;;;;;;;5.47;85.38;94353.66;1758155;82;21149;-65
2021/03/15 02:52:09;;;;;;;15.47;10.50;;;;;;;5.50;85.43;94351.87;1778330;81;21141;-65
2021/03/15 02:54:39;;;;;;;17.60;10.30;;;;;;;5.61;85.25;94351.66;1758007;82;21140;-65
2021/03/15 02:57:08;;;;;;;19.70;10.93;;;;;;;5.74;84.95;94354.44;1756301;81;21121;-65
2021/03/15 02:59:37;;;;;;;16.33;10.80;;;;;;;5.83;84.58;94350.80;1757702;81;21172;-65
2021/03/15 03:02:05;;;;;;;14.70;10.07;;;;;;;5.91;84.20;94348.02;1789073;79;21140;-65
2021/03/15 03:04:35;;;;;;;10.50;7.33;;;;;;;5.94;83.69;94343.59;1757999;81;21125;-65
2021/03/15 03:07:05;;;;;;;10.40;7.03;;;;;;;5.95;83.66;94345.34;1750128;81;21109;-65
2021/03/15 03:09:36;;;;;;;9.60;6.87;;;;;;;5.99;83.56;94343.51;1778643;81;21160;-65
2021/03/15 03:12:07;;;;;;;9.47;6.80;;;;;;;6.00;83.39;94344.80;1730830;82;21567;-65
2021/03/15 03:14:35;;;;;;;9.47;6.80;;;;;;;5.94;83.29;94345.36;1758058;81;21151;-65
2021/03/15 03:17:05;;;;;;;9.67;6.90;;;;;;;5.80;83.52;94343.01;1778539;81;21155;-65
2021/03/15 03:19:37;;;;;;;10.43;6.63;;;;;;;5.70;83.56;94342.33;1778830;81;21136;-65
2021/03/15 03:22:05;;;;;;;7.40;4.97;;;;;;;5.54;84.01;94340.89;1778358;81;21153;-65
2021/03/15 03:24:34;;;;;;;6.03;4.17;;;;;;;5.39;84.76;94335.08;1778719;81;21180;-65
2021/03/15 03:27:05;;;;;;;5.70;4.50;;;;;;;5.38;84.30;94333.78;1778557;81;21151;-64
2021/03/15 03:29:35;;;;;;;3.70;2.73;;;;;;;5.30;84.81;94335.69;1773916;81;21583;-65
2021/03/15 03:32:05;;;;;;;3.17;2.27;;;;;;;5.21;84.51;94335.39;1772904;81;21172;-65
2021/03/15 03:34:33;;;;;;;4.37;2.50;;;;;;;5.14;84.87;94329.44;1772410;81;21155;-66
2021/03/15 03:37:01;;;;;;;2.37;2.10;;;;;;;5.05;85.48;94331.34;1757373;82;21346;-65
2021/03/15 03:39:28;;;;;;;2.07;1.67;;;;;;;5.04;84.77;94325.69;1756173;82;21133;-65
2021/03/15 03:41:56;;;;;;;1.73;1.40;;;;;;;4.96;85.54;94327.12;1757514;81;21274;-65
2021/03/15 03:44:24;;;;;;;2.03;1.63;;;;;;;4.90;85.65;94325.48;1755938;82;21155;-65
2021/03/15 03:46:52;;;;;;;2.07;1.40;;;;;;;4.85;86.23;94318.17;1757420;82;21140;-64
2021/03/15 03:49:20;;;;;;;1.43;1.30;;;;;;;4.85;85.94;94319.48;1755894;82;21140;-64
2021/03/15 03:52:01;;;;;;;1.60;1.50;;;;;;;4.84;86.11;94321.69;1757265;82;21125;-65
2021/03/15 03:54:36;;;;;;;1.43;1.33;;;;;;;4.90;85.89;94325.94;1759093;81;21698;-64
2021/03/15 03:57:14;;;;;;;2.70;1.87;;;;;;;4.93;85.43;94327.19;1757432;82;21266;-65
2021/03/15 03:59:50;;;;;;;2.73;1.70;;;;;;;4.90;85.88;94326.80;1759181;81;21144;-65
2021/03/15 04:02:22;;;;;;;2.27;1.87;;;;;;;4.91;85.94;94326.34;1757601;82;21105;-64
2021/03/15 04:04:55;;;;;;;3.20;2.60;;;;;;;4.95;85.60;94322.80;1759119;81;21165;-65
2021/03/15 04:07:26;;;;;;;2.43;2.00;;;;;;;4.98;85.54;94312.28;1757251;82;21133;-64
2021/03/15 04:10:05;;;;;;;2.90;1.97;;;;;;;4.92;85.58;94309.79;1755817;82;21106;-64
2021/03/15 04:12:34;;;;;;;3.60;2.10;;;;;;;4.92;85.55;94318.48;1757763;82;21275;-65
2021/03/15 04:15:04;;;;;;;2.97;2.30;;;;;;;4.89;85.33;94317.23;1733545;81;21145;-64
2021/03/15 04:17:39;;;;;;;1.83;1.60;;;;;;;4.93;85.29;94314.12;1757195;82;21594;-65
2021/03/15 04:20:11;;;;;;;2.23;1.83;;;;;;;4.92;85.13;94304.11;1759050;81;21688;-65
2021/03/15 04:22:50;;;;;;;2.13;1.47;;;;;;;4.92;85.02;94304.56;1757268;82;21102;-65
2021/03/15 04:25:21;;;;;;;1.80;1.70;;;;;;;4.86;84.85;94305.51;1758888;81;21295;-65
2021/03/15 04:27:52;;;;;;;2.17;1.70;;;;;;;4.78;84.94;94304.34;1757379;82;21690;-65
2021/03/15 04:30:22;;;;;;;3.77;2.67;;;;;;;4.72;85.19;94304.91;1753361;81;21730;-65
2021/03/15 04:32:53;;;;;;;1.30;1.20;;;;;;;4.67;85.00;94310.65;1754888;81;21188;-64
2021/03/15 04:35:30;;;;;;;1.40;1.30;;;;;;;4.63;85.34;94315.50;1753755;82;21141;-65
2021/03/15 04:37:59;;;;;;;3.43;2.10;;;;;;;4.59;85.32;94305.55;1755030;82;21129;-65
2021/03/15 04:40:30;;;;;;;2.83;1.87;;;;;;;4.58;85.34;94306.42;1767052;81;21152;-65
2021/03/15 04:43:02;;;;;;;1.97;1.40;;;;;;;4.50;85.72;94304.38;1754967;82;21137;-65
2021/03/15 04:45:34;;;;;;;2.10;1.60;;;;;;;4.48;85.88;94304.84;1753523;81;21318;-65
2021/03/15 04:48:05;;;;;;;2.13;1.70;;;;;;;4.40;86.23;94306.72;1755438;82;21137;-65
2021/03/15 04:50:34;;;;;;;1.57;1.10;;;;;;;4.37;86.02;94307.63;1754969;82;21142;-64
2021/03/15 04:53:03;;;;;;;3.00;2.33;;;;;;;4.34;85.53;94307.69;1766819;81;21136;-65
2021/03/15 04:55:32;;;;;;;5.13;3.60;;;;;;;4.32;85.96;94311.61;1754968;82;21143;-65
2021/03/15 04:58:05;;;;;;;2.67;2.27;;;;;;;4.40;85.95;94310.19;1753344;82;21110;-65
2021/03/15 05:00:35;;;;;;;3.42;2.00;;;;;;;4.39;86.16;94306.31;1755111;81;21152;-65
2021/03/15 05:03:07;;;;;;;2.80;1.97;;;;;;;4.43;86.06;94300.99;1767402;81;21164;-65
2021/03/15 05:05:37;;;;;;;2.83;1.90;;;;;;;4.45;85.93;94304.45;1822443;79;21262;-65
2021/03/15 05:08:07;;;;;;;1.70;1.23;;;;;;;4.49;85.62;94302.22;1821501;79;21137;-65
2021/03/15 05:10:36;;;;;;;3.03;2.40;;;;;;;4.48;85.78;94306.15;1821909;78;21151;-65
2021/03/15 05:13:05;;;;;;;4.43;2.50;;;;;;;4.49;85.59;94299.61;1821734;78;21113;-65
2021/03/15 05:15:34;;;;;;;3.70;2.10;;;;;;;4.47;85.60;94302.68;1821743;79;21136;-65
2021/03/15 05:18:05;;;;;;;3.67;2.30;;;;;;;4.43;85.82;94300.14;1822104;79;21144;-65
2021/03/15 05:20:35;;;;;;;4.80;3.13;;;;;;;4.41;85.80;94293.66;1821752;78;21089;-65
2021/03/15 05:23:09;;;;;;;6.50;3.97;;;;;;;4.38;85.94;94288.45;1755215;82;21524;-65
2021/03/15 05:25:44;;;;;;;5.67;3.58;;;;;;;4.43;85.76;94289.23;1755226;82;21158;-65
2021/03/15 05:28:14;;;;;;;3.93;3.10;;;;;;;4.51;85.68;94287.81;1766908;81;21153;-65
2021/03/15 05:30:44;;;;;;;4.60;2.90;;;;;;;4.54;85.40;94282.11;1771520;81;21184;-65
2021/03/15 05:33:14;;;;;;;6.53;3.40;;;;;;;4.60;85.37;94288.98;1825600;78;21693;-65
2021/03/15 05:35:44;;;;;;;3.63;2.63;;;;;;;4.63;85.31;94284.14;1771768;81;21259;-65
2021/03/15 05:38:13;;;;;;;3.57;2.03;;;;;;;4.62;85.05;94281.12;1771535;81;21129;-64
2021/03/15 05:40:44;;;;;;;45.13;24.63;;;;;;;4.63;85.14;94281.08;1770249;81;21172;-65
2021/03/15 05:43:29;;;;;;;43.07;19.97;;;;;;;4.57;84.91;94290.80;1771545;81;21156;-65
2021/03/15 05:46:29;;;;;;;4.10;2.80;;;;;;;4.50;84.98;94288.27;1771664;81;21564;-65
2021/03/15 05:49:02;;;;;;;2.97;2.20;;;;;;;4.49;85.03;94283.94;1825544;78;21274;-66
2021/03/15 05:51:52;;;;;;;4.87;2.20;;;;;;;4.40;85.69;94289.75;1771818;81;21152;-65
2021/03/15 05:55:14;;;;;;;5.20;2.83;;;;;;;4.34;85.88;94282.88;1771447;81;21149;-65
2021/03/15 05:57:56;;;;;;;5.67;3.80;;;;;;;4.31;85.95;94283.79;1770298;81;21132;-65
2021/03/15 06:00:49;;;;;;;4.13;2.67;;;;;;;4.24;86.71;94289.12;1770482;81;21159;-66
2021/03/15 06:03:51;;;;;;;4.12;2.85;;;;;;;4.25;86.54;94286.92;1770065;81;21101;-66
2021/03/15 06:06:22;;;;;;;5.00;3.40;;;;;;;4.21;86.65;94275.68;1771626;81;21160;-67
2021/03/15 06:08:55;;;;;;;5.80;3.93;;;;;;;4.20;86.45;94283.08;1825631;78;21136;-66
2021/03/15 06:11:26;;;;;;;5.92;4.15;;;;;;;4.18;87.02;94285.29;1825678;78;21683;-66
2021/03/15 06:13:56;;;;;;;6.90;4.47;;;;;;;4.17;86.53;94277.91;1825416;78;21278;-66
2021/03/15 06:16:25;;;;;;;8.07;4.67;;;;;;;4.15;86.98;94282.73;1825375;78;21268;-65
2021/03/15 06:18:59;;;;;;;9.67;4.50;;;;;;;4.12;86.78;94282.34;1825727;78;21263;-66
2021/03/15 06:21:27;;;;;;;8.48;5.33;;;;;;;4.11;86.66;94281.93;1826006;78;21278;-64
2021/03/15 06:24:00;;;;;;;6.43;4.63;;;;;;;4.02;87.64;94282.05;1825190;78;21125;-64
2021/03/15 06:26:29;;;;;;;7.53;5.00;;;;;;;4.02;87.56;94285.97;1825562;78;21136;-65
2021/03/15 06:29:03;;;;;;;9.47;6.57;;;;;;;4.04;87.65;94286.81;1769079;81;21203;-66
2021/03/15 06:31:34;;;;;;;10.90;6.70;;;;;;;4.10;87.14;94278.43;1754794;81;21166;-64
2021/03/15 06:34:03;;;;;;;9.53;6.40;;;;;;;4.15;87.11;94278.81;1753273;81;21477;-65
2021/03/15 06:36:33;;;;;;;12.43;8.00;;;;;;;4.21;87.00;94281.32;1725528;82;21156;-64
2021/03/15 06:39:02;;;;;;;7.53;5.73;;;;;;;4.29;86.97;94281.64;1753312;82;21134;-67
2021/03/15 06:41:31;;;;;;;7.97;5.50;;;;;;;4.36;86.76;94279.80;1755184;82;21168;-64
2021/03/15 06:43:59;;;;;;;5.80;4.63;;;;;;;4.43;86.49;94272.27;1767278;81;21164;-67
2021/03/15 06:46:26;;;;;;;6.13;4.37;;;;;;;4.49;86.28;94272.63;1755090;82;21177;-65
2021/03/15 06:48:54;;;;;;;4.37;3.03;;;;;;;4.55;85.97;94272.52;1753597;82;21564;-68
2021/03/15 06:51:21;;;;;;;4.47;3.33;;;;;;;4.54;85.63;94263.83;1755116;81;21152;-67
2021/03/15 06:53:49;;;;;;;4.20;3.20;;;;;;;4.61;85.58;94271.55;1785953;80;21129;-67
2021/03/15 06:56:20;;;;;;;2.07;1.37;;;;;;;4.60;85.55;94269.84;1751633;81;21730;-67
2021/03/15 06:58:54;;;;;;;2.57;2.13;;;;;;;4.51;85.65;94265.61;1755143;82;21149;-64
2021/03/15 07:01:28;;;;;;;5.37;3.83;;;;;;;4.55;85.42;94269.45;1767489;81;21136;-69
2021/03/15 07:04:12;;;;;;;5.67;2.73;;;;;;;4.58;85.64;94271.16;1766892;81;21139;-64
2021/03/15 07:06:45;;;;;;;6.57;4.07;;;;;;;4.61;85.71;94271.13;1755191;82;21125;-65
2021/03/15 07:09:16;;;;;;;4.08;3.20;;;;;;;4.77;85.33;94267.34;1753772;82;21156;-65
2021/03/15 07:11:44;;;;;;;3.70;3.00;;;;;;;4.82;84.82;94263.34;1754931;82;21141;-65
2021/03/15 07:14:25;;;;;;;3.00;2.50;;;;;;;4.81;84.85;94264.67;1766981;81;21583;-66
2021/03/15 07:17:00;;;;;;;5.83;3.43;;;;;;;4.88;84.71;94264.53;1755066;82;21117;-63
2021/03/15 07:19:28;;;;;;;7.57;4.17;;;;;;;4.88;84.49;94263.67;1753536;82;21141;-64
2021/03/15 07:21:56;;;;;;;4.43;3.20;;;;;;;4.91;84.48;94262.31;1755176;82;21153;-64
2021/03/15 07:24:30;;;;;;;8.80;6.67;;;;;;;4.87;84.33;94256.73;1753446;82;21575;-67
2021/03/15 07:26:58;;;;;;;8.77;6.03;;;;;;;4.82;84.28;94253.34;1755067;82;21142;-64
2021/03/15 07:29:29;;;;;;;6.80;4.73;;;;;;;4.81;84.07;94256.83;1737136;81;21658;-66
2021/03/15 07:31:56;;;;;;;5.47;4.17;;;;;;;4.73;84.18;94260.89;1798132;78;21107;-65
2021/03/15 07:34:25;;;;;;;13.37;7.97;;;;;;;4.66;84.38;94255.34;1800274;78;21100;-70
2021/03/15 07:37:02;;;;;;;12.50;7.90;;;;;;;4.60;84.81;94262.85;1798283;79;21101;-67
2021/03/15 07:39:33;;;;;;;7.93;5.70;;;;;;;4.52;85.18;94259.52;1798157;80;21116;-66
2021/03/15 07:42:04;;;;;;;7.67;5.00;;;;;;;4.47;85.25;94255.67;1798250;80;21712;-69
2021/03/15 07:44:34;;;;;;;8.07;5.63;;;;;;;4.44;85.38;94258.79;1798224;80;21269;-69
2021/03/15 07:47:05;;;;;;;6.10;5.40;;;;;;;4.44;85.26;94251.81;1798506;80;21096;-70
2021/03/15 07:49:39;;;;;;;5.73;3.87;;;;;;;4.49;85.24;94257.81;1771805;80;21187;-70
2021/03/15 07:52:14;;;;;;;5.75;3.87;;;;;;;4.51;85.30;94256.05;1798483;80;21663;-69
2021/03/15 07:54:44;;;;;;;5.00;3.50;;;;;;;4.55;85.33;94255.54;1797950;80;21114;-66
2021/03/15 07:57:28;;;;;;;6.87;3.80;;;;;;;4.59;85.24;94257.22;1798318;80;21119;-67
2021/03/15 07:59:58;;;;;;;6.35;4.22;;;;;;;4.64;84.86;94254.09;1798643;80;21131;-65
2021/03/15 08:02:33;;;;;;;4.23;3.30;;;;;;;4.72;84.74;94253.95;1798150;80;21257;-68
2021/03/15 08:05:01;;;;;;;5.23;3.53;;;;;;;4.74;84.59;94250.88;1798183;80;21154;-65
2021/03/15 08:07:31;;;;;;;4.00;3.07;;;;;;;4.76;84.48;94249.06;1798414;80;21566;-66
2021/03/15 08:10:00;;;;;;;5.50;4.23;;;;;;;4.82;84.46;94244.20;1798051;80;21135;-70
2021/03/15 08:12:36;;;;;;;5.10;4.07;;;;;;;4.90;84.29;94248.83;1798630;80;21143;-72
2021/03/15 08:15:12;;;;;;;5.03;3.80;;;;;;;4.91;83.90;94246.63;1798409;80;21127;-72
2021/03/15 08:17:46;;;;;;;6.23;4.40;;;;;;;4.86;84.25;94245.84;1798405;80;21127;-74
2021/03/15 08:20:18;;;;;;;5.70;4.27;;;;;;;4.90;83.97;94245.77;1798947;78;21568;-68
2021/03/15 08:22:49;;;;;;;4.50;3.13;;;;;;;5.03;84.08;94243.78;1772437;79;21534;-68
2021/03/15 08:25:18;;;;;;;2.93;2.60;;;;;;;5.05;83.57;94245.08;1799304;79;21191;-67
2021/03/15 08:27:48;;;;;;;4.17;3.50;;;;;;;4.99;83.26;94244.75;1798456;78;21226;-64
2021/03/15 08:30:23;;;;;;;5.97;4.13;;;;;;;4.96;83.42;94246.09;1796873;78;21132;-67
2021/03/15 08:32:52;;;;;;;4.77;3.97;;;;;;;4.98;83.35;94253.02;1794992;78;21127;-65
2021/03/15 08:35:22;;;;;;;6.87;4.77;;;;;;;4.95;83.40;94252.22;1789709;78;21310;-66
2021/03/15 08:38:00;;;;;;;7.90;5.47;;;;;;;4.91;83.15;94243.59;1789560;80;21148;-70
2021/03/15 08:40:48;;;;;;;7.20;4.70;;;;;;;4.85;83.19;94240.22;1789312;80;21136;-68
2021/03/15 08:43:22;;;;;;;8.03;4.43;;;;;;;4.77;83.08;94244.28;1789348;80;21570;-65
2021/03/15 08:46:04;;;;;;;7.90;5.08;;;;;;;4.65;83.80;94234.05;1789785;80;21131;-73
2021/03/15 08:48:47;;;;;;;6.92;5.12;;;;;;;4.59;83.75;94232.41;1789622;80;21250;-75
2021/03/15 08:51:34;;;;;;;10.43;6.40;;;;;;;4.53;83.90;94229.88;1833876;78;21101;-72
2021/03/15 08:54:08;;;;;;;8.13;5.97;;;;;;;4.48;84.46;94229.09;1838540;78;21654;-76
2021/03/15 08:56:42;;;;;;;9.37;6.13;;;;;;;4.41;84.61;94230.97;1838848;78;21665;-71
2021/03/15 08:59:13;;;;;;;10.37;6.50;;;;;;;4.37;84.79;94233.66;1838533;78;21147;-74
2021/03/15 09:01:53;;;;;;;8.43;5.47;;;;;;;4.32;85.44;94225.89;1838545;78;21163;-74
2021/03/15 09:04:47;;;;;;;9.47;6.10;;;;;;;4.37;85.03;94225.38;1838353;78;21140;-74
2021/03/15 09:07:35;;;;;;;10.13;6.10;;;;;;;4.37;85.30;94225.83;1805578;79;21262;-69
2021/03/15 09:10:30;;;;;;;7.80;5.70;;;;;;;4.37;85.42;94218.84;1775445;81;21634;-71
2021/03/15 09:13:20;;;;;;;6.80;4.60;;;;;;;4.41;85.28;94224.45;1807337;79;21519;-69
2021/03/15 09:15:56;;;;;;;5.17;3.60;;;;;;;4.42;84.94;94220.08;1810589;79;21577;-76
2021/03/15 09:18:43;;;;;;;5.40;3.67;;;;;;;4.43;84.88;94228.31;1775603;81;21172;-70
2021/03/15 09:21:29;;;;;;;5.47;3.80;;;;;;;4.47;84.94;94229.55;1725846;80;21623;-65
2021/03/15 09:24:00;;;;;;;4.77;3.10;;;;;;;4.52;84.87;94222.95;1737601;81;21093;-71
2021/03/15 09:26:32;;;;;;;5.00;4.07;;;;;;;4.53;84.73;94218.13;1787473;80;21108;-66
2021/03/15 09:29:00;;;;;;;5.23;4.00;;;;;;;4.57;84.70;94215.89;1789579;80;21260;-71
2021/03/15 09:31:28;;;;;;;7.23;3.67;;;;;;;4.65;84.71;94217.06;1791981;80;21588;-65
2021/03/15 09:33:57;;;;;;;5.50;4.30;;;;;;;4.66;84.36;94219.66;1764854;80;21101;-67
2021/03/15 09:36:30;;;;;;;5.00;3.73;;;;;;;4.66;84.44;94218.35;1792703;80;21124;-66
2021/03/15 09:38:58;;;;;;;;;;;;;;;4.68;84.69;94220.47;1795074;80;21255;-68
2021/03/15 09:41:27;;;;;;;5.20;3.80;;;;;;;4.72;84.48;94215.61;1792697;80;20413;-66
2021/03/15 09:43:57;;;;;;;6.03;4.37;;;;;;;4.66;84.75;94210.93;1792849;80;21132;-65
2021/03/15 09:46:28;;;;;;;6.00;4.10;;;;;;;4.68;84.73;94215.24;1792617;80;21148;-66
2021/03/15 09:48:57;;;;;;;6.70;5.00;;;;;;;4.70;84.45;94220.45;1792834;80;21129;-65
2021/03/15 09:51:28;;;;;;;5.83;4.87;;;;;;;4.67;84.57;94211.37;1793017;80;21168;-64
2021/03/15 09:54:01;;;;;;;5.47;4.10;;;;;;;4.66;84.54;94207.91;1784060;78;21154;-65
2021/03/15 09:56:30;;;;;;;6.90;5.27;;;;;;;4.58;84.88;94214.98;1791367;80;21111;-67
2021/03/15 09:59:13;;;;;;;7.03;5.00;;;;;;;4.57;84.81;94210.67;1792265;78;21131;-69
2021/03/15 10:01:46;;;;;;;4.23;3.50;;;;;;;4.53;85.02;94208.53;1791011;80;21143;-66
2021/03/15 10:04:39;;;;;;;3.97;3.43;;;;;;;4.45;85.22;94205.66;1792485;80;21218;-66
2021/03/15 10:07:27;;;;;;;4.70;3.65;;;;;;;4.44;85.51;94201.33;1792846;78;21116;-67
2021/03/15 10:10:17;;;;;;;8.57;6.33;;;;;;;4.38;85.98;94199.66;1792464;80;21288;-66
2021/03/15 10:13:06;;;;;;;8.77;5.50;;;;;;;4.37;86.17;94201.02;1820215;78;21101;-66
2021/03/15 10:15:52;;;;;;;10.37;6.43;;;;;;;4.32;86.47;94203.70;1814553;78;21128;-66
2021/03/15 10:18:31;;;;;;;10.57;8.00;;;;;;;4.31;86.66;94200.69;1787619;80;21661;-66
2021/03/15 10:21:02;;;;;;;9.73;6.63;;;;;;;4.38;86.37;94198.36;1792589;80;21159;-66
2021/03/15 10:23:32;;;;;;;12.10;6.20;;;;;;;4.44;86.23;94203.95;1792309;80;21147;-66
2021/03/15 10:26:05;;;;;;;8.70;6.30;;;;;;;4.43;86.37;94204.36;1792174;80;21549;-66
2021/03/15 10:28:41;;;;;;;9.83;6.60;;;;;;;4.50;86.26;94194.23;1792203;80;21131;-66
2021/03/15 10:31:13;;;;;;;7.87;5.37;;;;;;;4.55;85.95;94193.70;1789504;80;21680;-66
2021/03/15 10:33:46;;;;;;;7.00;4.77;;;;;;;4.58;85.69;94199.31;1789654;80;21565;-66
2021/03/15 10:36:23;;;;;;;6.42;4.45;;;;;;;4.61;85.70;94195.79;1789826;80;21147;-66
2021/03/15 10:38:53;;;;;;;6.10;3.77;;;;;;;4.63;85.37;94192.70;1785924;80;21273;-66
2021/03/15 10:41:21;;;;;;;8.63;5.60;;;;;;;4.68;85.18;94185.64;1760880;80;21147;-66
2021/03/15 10:43:50;;;;;;;8.00;4.60;;;;;;;4.77;85.04;94179.80;1789598;80;21553;-66
2021/03/15 10:46:26;;;;;;;5.73;3.73;;;;;;;4.88;84.83;94175.67;1788462;80;21314;-66
2021/03/15 10:48:59;;;;;;;7.87;5.00;;;;;;;4.98;84.61;94178.52;1789755;80;21124;-66
2021/03/15 10:51:27;;;;;;;7.50;5.63;;;;;;;5.05;84.15;94174.04;1789455;80;21135;-66
2021/03/15 10:53:58;;;;;;;9.93;5.93;;;;;;;5.03;83.72;94173.66;1786294;80;21131;-66
2021/03/15 10:56:33;;;;;;;9.20;6.03;;;;;;;5.04;83.80;94168.41;1788821;80;21664;-66
2021/03/15 10:59:05;;;;;;;8.78;6.00;;;;;;;5.00;83.50;94164.13;1789741;80;21112;-66
2021/03/15 11:01:35;;;;;;;9.27;6.23;;;;;;;4.90;83.82;94167.81;1788431;80;21141;-66
2021/03/15 11:04:19;;;;;;;7.08;4.75;;;;;;;4.95;84.08;94164.21;1788422;80;21096;-66
2021/03/15 11:06:49;;;;;;;8.33;5.60;;;;;;;5.02;84.03;94159.73;1789032;80;21557;-66
2021/03/15 11:09:19;;;;;;;9.77;5.50;;;;;;;5.00;83.88;94161.52;1787628;80;21266;-66
2021/03/15 11:11:55;;;;;;;11.63;7.07;;;;;;;4.95;83.97;94161.59;1789201;80;21277;-66
2021/03/15 11:14:26;;;;;;;10.57;6.00;;;;;;;4.97;83.85;94157.20;1786597;80;21100;-66
2021/03/15 11:17:08;;;;;;;13.63;6.93;;;;;;;4.94;83.79;94154.66;1756952;80;21708;-66
2021/03/15 11:19:52;;;;;;;11.15;6.03;;;;;;;4.86;83.84;94144.78;1788212;80;21712;-66
2021/03/15 11:22:25;;;;;;;14.40;7.30;;;;;;;4.86;84.04;94146.09;1787619;80;21104;-66
2021/03/15 11:25:12;;;;;;;13.83;7.00;;;;;;;4.83;84.38;94141.38;1788617;80;21137;-66
2021/03/15 11:27:50;;;;;;;11.07;6.70;;;;;;;4.82;84.42;94141.84;1787368;80;21282;-66
2021/03/15 11:30:27;;;;;;;9.67;5.57;;;;;;;4.85;84.54;94136.54;1789719;80;21132;-66
2021/03/15 11:33:08;;;;;;;12.40;6.50;;;;;;;4.91;84.50;94132.94;1786278;80;21142;-66
2021/03/15 11:35:41;;;;;;;9.57;5.67;;;;;;;4.94;84.32;94125.91;1786320;80;21590;-66
2021/03/15 11:38:14;;;;;;;8.87;5.53;;;;;;;4.96;84.33;94123.25;1788950;80;21569;-66
2021/03/15 11:40:44;;;;;;;10.10;7.13;;;;;;;5.01;84.36;94129.23;1787739;80;21139;-66
2021/03/15 11:43:14;;;;;;;7.87;4.93;;;;;;;5.05;84.34;94126.98;1789672;80;21150;-66
2021/03/15 11:45:44;;;;;;;6.70;4.80;;;;;;;5.05;84.17;94119.59;1788825;80;21577;-67
2021/03/15 11:48:12;;;;;;;3.63;2.83;;;;;;;5.07;84.14;94113.89;1789793;80;21148;-66
2021/03/15 11:50:42;;;;;;;5.83;3.77;;;;;;;5.05;83.75;94112.61;1787891;80;21184;-66
2021/03/15 11:53:12;;;;;;;5.40;4.17;;;;;;;4.97;84.03;94106.69;1788957;80;21585;-66
2021/03/15 11:55:40;;;;;;;9.80;5.53;;;;;;;4.98;84.05;94105.78;1789732;80;21123;-66
2021/03/15 11:58:12;;;;;;;10.90;6.03;;;;;;;4.97;83.87;94103.63;1789677;80;21151;-66
2021/03/15 12:00:40;;;;;;;12.20;7.10;;;;;;;5.01;83.81;94101.79;1789439;80;21586;-66
2021/03/15 12:03:19;;;;;;;11.80;7.67;;;;;;;4.98;83.87;94098.80;1788077;80;21100;-66
2021/03/15 12:06:03;;;;;;;17.83;9.80;;;;;;;4.96;84.15;94089.27;1729195;80;21136;-66